Time;durP1;ratioP1;P1;durP2;ratioP2;P2;SDS_P1;SDS_P2;PMS_P1;PMS_P2;Temp;Humidity;BMP_temperature;BMP_pressure;BME280_temperature;BME280_humidity;BME280_pressure;Samples;Min_cycle;Max_cycle;Signal;HPM_P1;HPM_P2
2022/12/09 00:01:22;;;;;;;;;;;5.00;63.60;;;-0.15;92.96;94353.78;4974180;28;19929;-49
2022/12/09 00:03:48;;;;;;;;;;;5.00;63.60;;;-0.18;93.59;94341.16;4994852;28;19909;-52
2022/12/09 00:06:21;;;;;;;;;;;5.00;63.60;;;-0.20;94.52;94340.56;5013371;28;19908;-49
2022/12/09 00:08:49;;;;;;;;;;;5.00;63.60;;;-0.22;95.55;94335.53;5013380;28;19919;-51
2022/12/09 00:11:19;;;;;;;;;;;4.90;63.50;;;-0.27;95.90;94325.78;5013772;28;20344;-48
2022/12/09 00:13:53;;;;;;;;;;;5.00;63.60;;;-0.31;96.73;94321.22;4997140;28;19932;-51
2022/12/09 00:16:20;;;;;;;;;;;4.90;63.50;;;-0.31;97.49;94331.69;4994969;28;20413;-49
2022/12/09 00:18:52;;;;;;;;;;;4.90;63.70;;;-0.34;98.00;94334.78;4977488;28;19924;-49
2022/12/09 00:21:25;;;;;;;;;;;4.80;63.70;;;-0.37;98.74;94341.25;4977101;28;19910;-51
2022/12/09 00:23:57;;;;;;;;;;;4.80;63.80;;;-0.36;98.77;94344.66;4997526;28;19913;-50
2022/12/09 00:26:25;;;;;;;;;;;4.80;63.90;;;-0.35;98.96;94348.84;4992132;28;20363;-49
2022/12/09 00:28:52;;;;;;;;;;;4.70;63.90;;;-0.36;99.18;94355.13;4978429;28;20388;-49
2022/12/09 00:31:31;;;;;;;;;;;4.70;64.00;;;-0.39;99.48;94345.91;4976645;28;19916;-48
2022/12/09 00:34:01;;;;;;;;;;;4.70;64.00;;;-0.40;99.62;94344.31;4982030;28;19916;-49
2022/12/09 00:36:28;;;;;;;;;;;4.70;64.10;;;-0.40;100.00;94349.56;4996288;28;20284;-48
2022/12/09 00:38:56;;;;;;;;;;;4.70;64.20;;;-0.41;99.99;94347.16;4996763;28;19933;-50
2022/12/09 00:41:34;;;;;;;;;;;4.70;64.20;;;-0.44;100.00;94342.38;5012756;28;19909;-49
2022/12/09 00:44:00;;;;;;;;;;;4.70;64.20;;;-0.42;100.00;94335.09;4980241;28;19920;-48
2022/12/09 00:46:26;;;;;;;;;;;4.70;64.30;;;-0.40;100.00;94344.31;5003792;28;20287;-50
2022/12/09 00:48:55;;;;;;;;;;;4.70;64.40;;;-0.41;100.00;94345.31;4994364;28;20025;-49
2022/12/09 00:51:23;;;;;;;;;;;4.70;64.40;;;-0.40;100.00;94338.28;4994091;28;19913;-51
2022/12/09 00:53:54;;;;;;;;;;;4.60;64.40;;;-0.42;100.00;94343.75;5012542;28;19913;-51
2022/12/09 00:56:29;;;;;;;;;;;4.70;64.50;;;-0.45;100.00;94336.34;5012500;28;19909;-48
2022/12/09 00:58:58;;;;;;;;;;;4.60;64.50;;;-0.45;100.00;94328.50;5008053;28;19992;-50
2022/12/09 01:01:27;;;;;;;;;;;4.60;64.50;;;-0.48;100.00;94332.34;4977340;28;19909;-51
2022/12/09 01:04:06;;;;;;;;;;;4.60;64.60;;;-0.43;100.00;94338.75;4998844;28;19909;-50
2022/12/09 01:06:33;;;;;;;;;;;4.60;64.60;;;-0.40;100.00;94325.22;4997661;28;19953;-48
2022/12/09 01:08:58;;;;;;;;;;;4.60;64.70;;;-0.39;100.00;94314.50;4992932;28;20357;-49
2022/12/09 01:11:27;;;;;;;;;;;4.70;64.80;;;-0.45;100.00;94310.19;4994344;28;19910;-50
2022/12/09 01:13:59;;;;;;;;;;;4.70;64.80;;;-0.43;100.00;94310.75;4992591;28;19996;-48
2022/12/09 01:16:29;;;;;;;;;;;4.70;64.80;;;-0.52;100.00;94307.66;4976179;28;20355;-49
2022/12/09 01:18:59;;;;;;;;;;;4.70;64.80;;;-0.63;100.00;94300.59;4987667;28;19913;-50
2022/12/09 01:21:30;;;;;;;;;;;4.70;64.80;;;-0.63;100.00;94291.97;5011281;28;19912;-53
2022/12/09 01:23:56;;;;;;;;;;;4.60;64.70;;;-0.70;100.00;94287.63;4979496;28;19917;-51
2022/12/09 01:26:21;;;;;;;;;;;4.60;64.80;;;-0.70;100.00;94281.59;4999551;28;19916;-51
2022/12/09 01:28:55;;;;;;;;;;;4.60;64.80;;;-0.71;100.00;94288.66;5012412;28;19913;-51
2022/12/09 01:31:24;;;;;;;;;;;4.60;64.90;;;-0.75;100.00;94290.16;5000459;28;20378;-49
2022/12/09 01:33:50;;;;;;;;;;;4.60;65.00;;;-0.68;100.00;94299.69;5008517;28;19971;-51
2022/12/09 01:36:20;;;;;;;;;;;4.60;65.00;;;-0.71;100.00;94293.88;4984830;28;19983;-49
2022/12/09 01:38:47;;;;;;;;;;;4.50;65.00;;;-0.68;100.00;94287.41;4973903;28;19921;-50
2022/12/09 01:41:16;;;;;;;;;;;4.50;65.10;;;-0.62;100.00;94289.13;4987258;28;20001;-50
2022/12/09 01:44:17;;;;;;;;;;;4.50;65.10;;;-0.61;100.00;94280.25;4990834;28;20334;-51
2022/12/09 01:47:21;;;;;;;;;;;4.50;65.20;;;-0.58;100.00;94281.63;4998505;28;19917;-51
2022/12/09 01:49:50;;;;;;;;;;;4.50;65.30;;;-0.59;100.00;94278.22;4996561;28;19962;-48
2022/12/09 01:52:22;;;;;;;;;;;4.50;65.30;;;-0.61;100.00;94276.84;5003982;28;19971;-50
2022/12/09 01:54:51;;;;;;;;;;;4.50;65.40;;;-0.58;100.00;94276.41;5010971;28;19924;-51
2022/12/09 01:57:19;;;;;;;;;;;4.50;65.40;;;-0.57;100.00;94264.91;5011719;28;19995;-50
2022/12/09 01:59:45;;;;;;;;;;;4.50;65.40;;;-0.56;100.00;94258.66;4991904;28;19947;-51
2022/12/09 02:02:29;;;;;;;;;;;4.50;65.40;;;-0.56;100.00;94251.59;4988863;28;19916;-49
2022/12/09 02:04:55;;;;;;;;;;;4.50;65.50;;;-0.57;100.00;94243.97;4999537;28;19913;-51
2022/12/09 02:07:21;;;;;;;;;;;4.50;65.40;;;-0.58;100.00;94239.78;4991401;28;19921;-53
2022/12/09 02:09:51;;;;;;;;;;;4.50;65.40;;;-0.61;100.00;94248.06;4991330;28;19910;-49
2022/12/09 02:13:18;;;;;;;;;;;4.50;65.50;;;-0.56;100.00;94254.22;4995093;28;20339;-49
2022/12/09 02:15:57;;;;;;;;;;;4.50;65.50;;;-0.51;100.00;94258.75;5006439;28;19910;-50
2022/12/09 02:18:56;;;;;;;;;;;4.50;65.60;;;-0.48;100.00;94253.88;5007782;28;20016;-49
2022/12/09 02:21:29;;;;;;;;;;;4.60;65.70;;;-0.45;100.00;94246.59;4990172;28;19913;-49
2022/12/09 02:24:37;;;;;;;;;;;4.60;65.70;;;-0.42;100.00;94241.69;5010658;28;19924;-49
2022/12/09 02:27:32;;;;;;;;;;;4.70;65.80;;;-0.40;100.00;94233.63;4968950;28;19913;-51
2022/12/09 02:31:08;;;;;;;;;;;4.70;65.80;;;-0.36;100.00;94232.94;5001552;28;19916;-49
2022/12/09 02:33:56;;;;;;;;;;;4.70;65.80;;;-0.37;100.00;94225.31;4961237;28;19909;-49
2022/12/09 02:36:35;;;;;;;;;;;4.80;65.80;;;-0.40;100.00;94217.94;4985498;28;19922;-54
2022/12/09 02:39:02;;;;;;;;;;;4.80;65.70;;;-0.38;100.00;94215.88;4975621;28;19955;-52
2022/12/09 02:41:33;;;;;;;;;;;4.80;65.60;;;-0.41;100.00;94217.13;4941359;28;19913;-49
2022/12/09 02:44:17;;;;;;;;;;;4.80;65.60;;;-0.44;100.00;94214.97;4955779;28;19909;-51
2022/12/09 02:46:48;;;;;;;;;;;4.80;65.60;;;-0.41;100.00;94211.88;4966661;28;19916;-49
2022/12/09 02:49:15;;;;;;;;;;;4.80;65.60;;;-0.48;100.00;94212.00;4992181;28;19909;-50
2022/12/09 02:51:44;;;;;;;;;;;4.70;65.50;;;-0.54;100.00;94205.06;4987618;28;19913;-51
2022/12/09 02:54:16;;;;;;;;;;;4.70;65.50;;;-0.61;100.00;94198.38;4986553;28;19909;-50
2022/12/09 02:57:23;;;;;;;;;;;4.70;65.50;;;-0.61;100.00;94204.41;4955474;28;19917;-48
2022/12/09 02:59:52;;;;;;;;;;;4.60;65.50;;;-0.73;100.00;94193.16;4942164;28;19909;-48
2022/12/09 03:02:51;;;;;;;;;;;4.60;65.50;;;-0.75;100.00;94188.16;4990242;28;19963;-52
2022/12/09 03:05:59;;;;;;;;;;;4.60;65.50;;;-0.76;100.00;94173.47;4973525;28;20296;-50
2022/12/09 03:08:42;;;;;;;;;;;4.50;65.50;;;-0.73;100.00;94172.22;4988010;28;19920;-49
2022/12/09 03:11:38;;;;;;;;;;;4.50;65.60;;;-0.75;100.00;94169.06;4967461;28;20296;-48
2022/12/09 03:14:22;;;;;;;;;;;4.40;65.70;;;-0.73;100.00;94162.56;4962902;28;19917;-49
2022/12/09 03:17:45;;;;;;;;;;;4.40;65.80;;;-0.76;100.00;94170.06;4950937;28;20059;-49
2022/12/09 03:20:21;;;;;;;;;;;4.40;65.90;;;-0.77;100.00;94160.63;4859022;29;19946;-53
2022/12/09 03:22:50;;;;;;;;;;;4.40;65.90;;;-0.84;100.00;94165.19;4869628;29;20313;-51
2022/12/09 03:25:33;;;;;;;;;;;4.40;66.00;;;-0.84;100.00;94159.97;4948329;28;19910;-49
2022/12/09 03:28:11;;;;;;;;;;;4.30;65.90;;;-0.89;100.00;94150.19;4973510;28;19914;-50
2022/12/09 03:30:43;;;;;;;;;;;4.30;65.90;;;-0.89;100.00;94154.63;4990695;28;19949;-50
2022/12/09 03:33:16;;;;;;;;;;;4.30;65.90;;;-1.05;100.00;94137.78;4991157;28;19910;-51
2022/12/09 03:35:55;;;;;;;;;;;4.30;65.90;;;-1.11;100.00;94126.44;4976765;28;19909;-49
2022/12/09 03:38:27;;;;;;;;;;;4.20;65.80;;;-1.03;100.00;94133.16;4994319;28;19905;-50
2022/12/09 03:41:28;;;;;;;;;;;4.20;65.90;;;-1.00;100.00;94130.09;4992493;28;19912;-47
2022/12/09 03:44:08;;;;;;;;;;;4.20;66.00;;;-1.00;100.00;94130.88;4926190;28;20367;-50
2022/12/09 03:46:34;;;;;;;;;;;4.20;66.10;;;-1.01;100.00;94115.41;5002493;28;19916;-46
2022/12/09 03:49:00;;;;;;;;;;;4.20;66.20;;;-1.02;100.00;94117.22;4992818;28;19962;-50
2022/12/09 03:52:10;;;;;;;;;;;4.20;66.30;;;-1.02;100.00;94119.84;4985901;28;19913;-53
2022/12/09 03:54:46;;;;;;;;;;;4.20;66.30;;;-1.03;100.00;94102.56;4994610;28;19913;-53
2022/12/09 03:57:15;;;;;;;;;;;4.10;66.30;;;-1.01;100.00;94103.13;5008992;28;19909;-49
2022/12/09 03:59:50;;;;;;;;;;;4.10;66.40;;;-1.02;100.00;94098.13;5009463;28;20309;-51
2022/12/09 04:02:16;;;;;;;;;;;4.10;66.40;;;-0.99;100.00;94095.06;4968076;28;20512;-52
2022/12/09 04:04:42;;;;;;;;;;;4.10;66.40;;;-1.03;100.00;94092.13;4981286;28;19977;-52
2022/12/09 04:07:09;;;;;;;;;;;4.10;66.40;;;-1.03;100.00;94091.31;4990073;28;19917;-49
2022/12/09 04:09:40;;;;;;;;;;;4.10;66.40;;;-1.04;100.00;94087.09;5008400;28;19991;-52
2022/12/09 04:12:07;;;;;;;;;;;4.10;66.30;;;-1.10;100.00;94086.19;4991239;28;20393;-50
2022/12/09 04:14:36;;;;;;;;;;;4.20;66.40;;;-1.14;100.00;94079.84;5008650;28;19929;-52
2022/12/09 04:17:08;;;;;;;;;;;4.10;66.30;;;-1.14;100.00;94077.22;4997417;28;19978;-51
2022/12/09 04:19:34;;;;;;;;;;;4.10;66.30;;;-1.12;100.00;94082.25;4991955;28;20298;-50
2022/12/09 04:22:00;;;;;;;;;;;4.10;66.40;;;-1.15;100.00;94074.84;5003614;28;19909;-55
2022/12/09 04:24:25;;;;;;;;;;;4.10;66.40;;;-1.15;100.00;94077.47;5002965;28;19923;-54
2022/12/09 04:26:51;;;;;;;;;;;4.10;66.50;;;-1.15;100.00;94077.47;4991309;28;20291;-49
2022/12/09 04:29:17;;;;;;;;;;;4.00;66.50;;;-1.19;100.00;94077.94;5006535;28;19913;-51
2022/12/09 04:31:45;;;;;;;;;;;4.10;66.60;;;-1.18;100.00;94078.72;4990948;28;20283;-50
2022/12/09 04:34:11;;;;;;;;;;;4.00;66.60;;;-1.13;100.00;94072.78;4999695;28;19909;-50
2022/12/09 04:36:38;;;;;;;;;;;4.00;66.70;;;-1.15;100.00;94074.84;5011301;23;19931;-56
2022/12/09 04:39:07;;;;;;;;;;;4.00;66.70;;;-1.13;100.00;94072.78;4983951;28;19949;-49
2022/12/09 04:41:36;;;;;;;;;;;4.00;66.70;;;-1.10;100.00;94075.75;4988295;28;19909;-50
2022/12/09 04:44:02;;;;;;;;;;;4.00;66.70;;;-1.09;100.00;94066.91;4977466;28;19959;-52
2022/12/09 04:46:28;;;;;;;;;;;4.00;66.80;;;-1.12;100.00;94059.50;4971612;28;19971;-49
2022/12/09 04:48:53;;;;;;;;;;;4.10;66.80;;;-1.13;100.00;94057.13;4989752;28;19917;-49
2022/12/09 04:51:19;;;;;;;;;;;4.00;66.70;;;-1.12;100.00;94061.34;4990907;28;19953;-49
2022/12/09 04:53:54;;;;;;;;;;;4.10;66.80;;;-1.09;100.00;94060.88;4991855;28;19910;-49
2022/12/09 04:56:23;;;;;;;;;;;4.00;66.80;;;-1.09;100.00;94056.44;4992035;28;20008;-49
2022/12/09 04:58:50;;;;;;;;;;;4.00;66.80;;;-1.09;100.00;94050.44;4992197;28;19956;-49
2022/12/09 05:01:20;;;;;;;;;;;4.00;66.80;;;-1.16;100.00;94045.28;4975082;28;20272;-55
2022/12/09 05:03:51;;;;;;;;;;;4.10;66.90;;;-1.18;100.00;94045.53;4991653;28;19916;-49
2022/12/09 05:06:19;;;;;;;;;;;4.00;66.80;;;-1.20;100.00;94036.31;4972503;28;19914;-49
2022/12/09 05:08:46;;;;;;;;;;;4.00;66.80;;;-1.23;100.00;94040.19;4991672;28;20020;-49
2022/12/09 05:11:14;;;;;;;;;;;4.00;66.80;;;-1.17;100.00;94036.66;4974265;28;19909;-55
2022/12/09 05:13:46;;;;;;;;;;;4.00;66.90;;;-1.14;100.00;94035.41;4991483;28;20008;-49
2022/12/09 05:16:16;;;;;;;;;;;4.00;66.90;;;-1.14;100.00;94042.47;4991393;28;20391;-51
2022/12/09 05:18:43;;;;;;;;;;;4.00;67.00;;;-1.12;100.00;94037.81;4993064;28;19913;-49
2022/12/09 05:21:13;;;;;;;;;;;4.00;67.00;;;-1.08;100.00;94039.72;4996172;28;19952;-49
2022/12/09 05:23:39;;;;;;;;;;;4.00;67.00;;;-1.08;100.00;94041.56;4993092;28;19960;-49
2022/12/09 05:26:10;;;;;;;;;;;4.00;67.10;;;-1.09;100.00;94047.81;5003526;28;19913;-53
2022/12/09 05:28:36;;;;;;;;;;;4.10;67.10;;;-1.06;100.00;94050.75;5001601;28;19914;-53
2022/12/09 05:31:15;;;;;;;;;;;4.10;67.10;;;-1.04;100.00;94053.13;5002045;28;19915;-50
2022/12/09 05:33:45;;;;;;;;;;;4.10;67.10;;;-1.11;100.00;94050.63;4985034;28;19948;-55
2022/12/09 05:36:14;;;;;;;;;;;4.10;67.10;;;-1.08;100.00;94060.63;5000110;28;19971;-49
2022/12/09 05:38:40;;;;;;;;;;;4.10;67.10;;;-1.04;100.00;94053.13;5005101;28;19948;-49
2022/12/09 05:41:07;;;;;;;;;;;4.10;67.00;;;-1.05;100.00;94048.94;4975461;28;20443;-49
2022/12/09 05:43:33;;;;;;;;;;;4.10;67.10;;;-1.05;100.00;94048.94;4995894;28;19913;-57
2022/12/09 05:46:05;;;;;;;;;;;4.10;67.10;;;-1.04;100.00;94051.31;4989686;28;19917;-49
2022/12/09 05:48:31;;;;;;;;;;;4.10;67.90;;;-1.05;100.00;94064.63;4983816;28;19913;-49
2022/12/09 05:51:00;;;;;;;;;;;4.10;67.10;;;-1.00;100.00;94059.50;4999620;28;20411;-53
2022/12/09 05:53:27;;;;;;;;;;;4.10;67.10;;;-0.98;100.00;94065.28;4990417;28;20016;-49
2022/12/09 05:55:53;;;;;;;;;;;4.20;67.20;;;-0.98;100.00;94060.06;4991026;28;19909;-54
2022/12/09 05:58:19;;;;;;;;;;;4.20;67.20;;;-0.97;100.00;94064.28;4990064;28;19916;-52
2022/12/09 06:00:45;;;;;;;;;;;4.20;67.20;;;-0.93;100.00;94052.31;4986321;28;20376;-49
2022/12/09 06:03:11;;;;;;;;;;;4.20;67.20;;;-0.93;100.00;94047.88;5000823;28;19909;-49
2022/12/09 06:05:42;;;;;;;;;;;4.20;67.20;;;-0.92;100.00;94048.69;4999631;28;19917;-51
2022/12/09 06:08:08;;;;;;;;;;;4.20;67.20;;;-0.95;100.00;94049.13;4981754;28;19913;-51
2022/12/09 06:10:38;;;;;;;;;;;4.20;67.10;;;-0.98;100.00;94042.53;4991369;28;20297;-50
2022/12/09 06:13:05;;;;;;;;;;;4.20;67.10;;;-0.99;100.00;94050.63;4996735;28;19917;-51
2022/12/09 06:15:33;;;;;;;;;;;4.20;67.10;;;-0.99;100.00;94040.97;4977417;28;19917;-51
2022/12/09 06:17:59;;;;;;;;;;;4.20;67.10;;;-0.97;100.00;94040.75;4996224;28;20344;-51
2022/12/09 06:20:28;;;;;;;;;;;4.20;67.10;;;-0.96;100.00;94037.88;4987084;28;19955;-51
2022/12/09 06:22:56;;;;;;;;;;;4.20;67.10;;;-0.93;100.00;94037.44;4974574;28;19909;-51
2022/12/09 06:25:28;;;;;;;;;;;4.20;67.10;;;-0.96;100.00;94037.88;4991314;28;20373;-51
2022/12/09 06:27:54;;;;;;;;;;;4.20;67.20;;;-0.95;100.00;94028.22;4992471;28;19923;-50
2022/12/09 06:30:20;;;;;;;;;;;4.20;67.20;;;-0.93;100.00;94029.59;4975150;28;19921;-51
2022/12/09 06:32:46;;;;;;;;;;;4.20;67.20;;;-0.91;100.00;94016.28;4991410;28;19909;-52
2022/12/09 06:35:12;;;;;;;;;;;4.20;67.20;;;-0.93;100.00;94020.97;4984773;28;20280;-52
2022/12/09 06:37:37;;;;;;;;;;;4.20;67.20;;;-0.94;100.00;94019.34;4979126;28;19922;-50
2022/12/09 06:40:04;;;;;;;;;;;4.20;67.20;;;-0.96;100.00;94018.81;4965425;28;19968;-51
2022/12/09 06:42:30;;;;;;;;;;;4.20;67.20;;;-0.98;100.00;94023.47;4983077;28;19988;-51
2022/12/09 06:44:59;;;;;;;;;;;4.20;67.20;;;-1.01;100.00;94021.31;5001195;28;19956;-51
2022/12/09 06:47:24;;;;;;;;;;;4.20;67.20;;;-0.99;100.00;94014.81;4997586;28;19963;-50
2022/12/09 06:49:56;;;;;;;;;;;4.20;67.20;;;-1.01;100.00;94009.03;4984113;28;20327;-51
2022/12/09 06:52:22;;;;;;;;;;;4.20;67.20;;;-1.01;100.00;94013.47;4969044;28;19913;-51
2022/12/09 06:54:48;;;;;;;;;;;4.20;67.20;;;-1.06;100.00;94006.31;4980098;28;19920;-51
2022/12/09 06:57:14;;;;;;;;;;;4.20;67.20;;;-1.07;100.00;94009.94;4914656;28;20601;-51
2022/12/09 06:59:42;;;;;;;;;;;4.10;67.90;;;-1.11;100.00;93998.38;4968382;28;19909;-52
2022/12/09 07:02:09;;;;;;;;;;;4.10;67.10;;;-1.13;100.00;94002.22;4982980;28;19914;-51
2022/12/09 07:04:35;;;;;;;;;;;4.10;67.10;;;-1.13;100.00;94004.84;4981917;28;20298;-52
2022/12/09 07:07:01;;;;;;;;;;;4.10;67.20;;;-1.14;100.00;94005.88;4970420;28;19917;-51
2022/12/09 07:09:26;;;;;;;;;;;4.10;67.20;;;-1.10;100.00;94002.56;4984715;28;19909;-50
2022/12/09 07:11:52;;;;;;;;;;;4.10;67.30;;;-1.09;100.00;94003.38;4968202;28;19910;-51
2022/12/09 07:14:19;;;;;;;;;;;4.10;67.30;;;-1.07;100.00;94006.53;4967426;28;20292;-50
2022/12/09 07:16:56;;;;;;;;;;;4.10;67.30;;;-1.05;100.00;94005.28;4967941;28;19918;-51
2022/12/09 07:19:22;;;;;;;;;;;4.10;67.30;;;-1.04;100.00;94006.88;4985464;28;19913;-51
2022/12/09 07:21:54;;;;;;;;;;;4.10;67.30;;;-1.00;100.00;94004.63;4963466;28;19913;-51
2022/12/09 07:24:20;;;;;;;;;;;4.10;67.30;;;-1.00;100.00;94015.06;4989938;28;19969;-51
2022/12/09 07:26:47;;;;;;;;;;;4.20;67.40;;;-0.97;100.00;94007.56;4984093;28;19961;-51
2022/12/09 07:29:16;;;;;;;;;;;4.20;67.40;;;-0.99;100.00;94006.97;4972596;28;19911;-51
2022/12/09 07:31:43;;;;;;;;;;;4.20;67.30;;;-0.99;100.00;94011.41;4985240;28;20284;-51
2022/12/09 07:34:10;;;;;;;;;;;4.30;67.30;;;-0.97;100.00;94007.56;4971957;28;20291;-50
2022/12/09 07:36:39;;;;;;;;;;;4.30;67.30;;;-0.94;100.00;94008.91;4983479;28;19917;-51
2022/12/09 07:39:14;;;;;;;;;;;4.30;67.20;;;-0.92;100.00;94006.84;4988219;28;20377;-50
2022/12/09 07:41:41;;;;;;;;;;;4.40;67.20;;;-0.88;100.00;94007.97;4987329;28;20012;-52
2022/12/09 07:44:08;;;;;;;;;;;4.40;67.20;;;-0.88;100.00;94007.97;4990401;28;19910;-52
2022/12/09 07:46:45;;;;;;;;;;;4.40;67.20;;;-0.84;100.00;93997.88;4988336;28;19913;-51
2022/12/09 07:49:11;;;;;;;;;;;4.40;67.20;;;-0.80;100.00;94007.63;4972902;28;19914;-51
2022/12/09 07:51:37;;;;;;;;;;;4.50;67.20;;;-0.76;100.00;94007.94;4987376;28;19923;-50
2022/12/09 07:54:10;;;;;;;;;;;4.50;67.20;;;-0.74;100.00;94008.50;4971147;28;19916;-50
2022/12/09 07:56:39;;;;;;;;;;;4.50;67.20;;;-0.73;100.00;94008.28;4988823;28;19952;-51
2022/12/09 07:59:08;;;;;;;;;;;4.60;67.10;;;-0.74;100.00;94004.06;4989140;28;19910;-51
2022/12/09 08:01:37;;;;;;;;;;;4.60;67.10;;;-0.72;100.00;94007.25;4988387;28;20372;-51
2022/12/09 08:04:07;;;;;;;;;;;4.60;67.00;;;-0.67;100.00;94000.53;4988069;28;20411;-51
2022/12/09 08:06:48;;;;;;;;;;;4.60;66.90;;;-0.64;100.00;93993.00;4990357;28;19909;-51
2022/12/09 08:09:17;;;;;;;;;;;4.70;66.90;;;-0.67;100.00;94003.16;4990143;28;19914;-51
2022/12/09 08:11:43;;;;;;;;;;;4.70;66.90;;;-0.67;100.00;93995.31;4970492;28;19909;-51
2022/12/09 08:14:10;;;;;;;;;;;4.70;66.70;;;-0.66;100.00;93994.25;4996698;28;19932;-52
2022/12/09 08:16:36;;;;;;;;;;;4.80;66.80;;;-0.62;100.00;93995.41;4980381;28;20422;-51
2022/12/09 08:19:02;;;;;;;;;;;4.80;66.70;;;-0.52;100.00;93992.97;4978488;28;19936;-52
2022/12/09 08:21:31;;;;;;;;;;;4.90;66.80;;;-0.49;100.00;93988.06;4994451;28;19909;-52
2022/12/09 08:24:06;;;;;;;;;;;5.00;66.80;;;-0.45;100.00;93988.38;4994324;28;19913;-52
2022/12/09 08:26:32;;;;;;;;;;;5.10;66.70;;;-0.37;100.00;93995.06;4992111;28;19948;-51
2022/12/09 08:28:59;;;;;;;;;;;5.10;66.50;;;-0.30;100.00;93995.72;4991562;28;19914;-52
2022/12/09 08:31:26;;;;;;;;;;;5.20;66.50;;;-0.28;100.00;93993.66;4976405;28;19920;-52
2022/12/09 08:33:55;;;;;;;;;;;5.30;66.50;;;-0.30;100.00;93995.72;4992459;28;26793;-53
2022/12/09 08:36:26;;;;;;;;;;;5.40;66.30;;;-0.20;100.00;93992.47;4992443;28;20000;-51
2022/12/09 08:38:57;;;;;;;;;;;5.40;66.10;;;-0.13;100.00;93993.09;4992488;28;20302;-53
2022/12/09 08:41:36;;;;;;;;;;;5.50;66.10;;;-0.07;100.00;93998.19;4973839;28;19921;-51
2022/12/09 08:44:28;;;;;;;;;;;5.60;66.10;;;-0.04;100.00;93987.25;4992573;28;20296;-55
2022/12/09 08:46:54;;;;;;;;;;;5.70;66.10;;;0.06;100.00;93991.84;4947922;28;19942;-54
2022/12/09 08:49:22;;;;;;;;;;;5.80;66.00;;;0.12;100.00;93987.50;4993714;28;20023;-55
2022/12/09 08:51:51;;;;;;;;;;;5.90;65.90;;;0.13;99.66;93987.25;4992564;28;19947;-55
2022/12/09 08:54:18;;;;;;;;;;;5.90;65.70;;;0.11;98.90;93986.69;4975823;28;19963;-55
2022/12/09 08:56:53;;;;;;;;;;;6.00;65.50;;;0.16;98.93;93984.16;4976422;28;19932;-53
2022/12/09 08:59:25;;;;;;;;;;;6.10;65.30;;;0.25;98.77;93986.38;4975156;28;20257;-55
2022/12/09 09:01:54;;;;;;;;;;;6.10;65.20;;;0.32;98.34;93987.81;4993392;28;20338;-54
2022/12/09 09:04:22;;;;;;;;;;;6.20;65.20;;;0.34;97.61;93985.72;4992518;28;20024;-53
2022/12/09 09:06:50;;;;;;;;;;;6.30;65.80;;;0.32;97.14;93979.16;4992195;28;19913;-54
2022/12/09 09:09:17;;;;;;;;;;;6.30;64.80;;;0.35;97.22;93987.34;4971189;28;20008;-54
2022/12/09 09:11:43;;;;;;;;;;;6.40;64.70;;;0.41;97.05;93994.25;4988849;28;19975;-51
2022/12/09 09:14:13;;;;;;;;;;;6.40;64.60;;;0.42;97.01;94000.28;4993420;28;19936;-56
2022/12/09 09:16:44;;;;;;;;;;;6.40;64.60;;;0.49;97.07;93995.66;4991430;28;19913;-56
2022/12/09 09:19:24;;;;;;;;;;;6.50;64.60;;;0.55;97.14;93996.53;4991370;28;19913;-53
2022/12/09 09:21:56;;;;;;;;;;;6.50;64.60;;;0.58;96.55;94001.28;4990276;28;19957;-57
2022/12/09 09:24:24;;;;;;;;;;;6.50;64.60;;;0.58;96.26;94004.69;4979848;28;19917;-55
2022/12/09 09:26:55;;;;;;;;;;;6.50;64.60;;;0.60;96.16;93997.38;4995150;28;19910;-54
2022/12/09 09:29:22;;;;;;;;;;;6.50;64.60;;;0.63;96.53;93999.53;4995753;28;20490;-56
2022/12/09 09:31:52;;;;;;;;;;;6.50;64.60;;;0.68;95.65;93994.34;4979183;28;19964;-54
2022/12/09 09:34:25;;;;;;;;;;;6.50;64.60;;;0.71;95.95;93994.91;4992807;28;20016;-54
2022/12/09 09:36:59;;;;;;;;;;;6.60;64.60;;;0.76;95.51;93992.38;5002723;28;19964;-56
2022/12/09 09:39:25;;;;;;;;;;;6.60;64.70;;;0.76;95.32;93992.38;4974260;28;19920;-53
2022/12/09 09:42:02;;;;;;;;;;;6.70;64.60;;;0.73;95.53;93983.16;4974830;28;19910;-53
2022/12/09 09:44:49;;;;;;;;;;;6.70;64.40;;;0.70;94.84;93986.25;5004543;28;19913;-53
2022/12/09 09:47:24;;;;;;;;;;;6.70;64.20;;;0.76;95.10;93979.25;4991831;28;19913;-57
2022/12/09 09:49:54;;;;;;;;;;;6.80;64.00;;;0.76;94.74;93989.75;4992742;28;20401;-55
2022/12/09 09:52:26;;;;;;;;;;;6.90;64.00;;;0.82;94.48;93976.44;4987522;28;19909;-53
2022/12/09 09:55:11;;;;;;;;;;;6.90;63.80;;;0.90;94.39;93969.97;4986680;28;19914;-54
2022/12/09 09:58:20;;;;;;;;;;;7.00;63.70;;;1.01;93.99;93976.16;4970336;28;20016;-55
2022/12/09 10:01:12;;;;;;;;;;;7.20;63.60;;;1.03;93.40;93974.84;4984570;28;19913;-58
2022/12/09 10:04:08;;;;;;;;;;;7.40;63.30;;;1.03;92.30;93974.84;4972031;28;20012;-52
2022/12/09 10:06:43;;;;;;;;;;;7.60;63.00;;;0.94;92.97;93971.09;4985434;28;20450;-53
2022/12/09 10:09:40;;;;;;;;;;;7.70;62.50;;;1.08;92.91;93967.06;4987456;28;19914;-54
2022/12/09 10:12:39;;;;;;;;;;;7.80;62.20;;;1.17;92.00;93964.03;4984217;28;19910;-53
2022/12/09 10:15:25;;;;;;;;;;;7.90;62.10;;;1.23;91.93;93955.97;4990958;28;20256;-52
2022/12/09 10:18:21;;;;;;;;;;;8.00;61.90;;;1.24;91.49;93952.28;4939397;28;19967;-53
2022/12/09 10:20:53;;;;;;;;;;;8.10;61.80;;;1.32;91.65;93949.25;4960705;28;20074;-55
2022/12/09 10:23:21;;;;;;;;;;;8.10;61.70;;;1.30;91.37;93940.81;4990867;28;19951;-54
2022/12/09 10:25:56;;;;;;;;;;;8.10;61.60;;;1.36;91.08;93942.44;4974419;28;19913;-55
2022/12/09 10:28:38;;;;;;;;;;;8.20;61.40;;;1.51;91.01;93944.44;4989060;28;19978;-53
2022/12/09 10:31:10;;;;;;;;;;;8.30;61.30;;;1.57;90.55;93937.41;4974146;28;19956;-56
2022/12/09 10:33:39;;;;;;;;;;;8.50;61.30;;;1.70;90.16;93934.38;4989255;28;19916;-55
2022/12/09 10:36:20;;;;;;;;;;;8.60;61.20;;;1.77;90.17;93926.31;5015281;23;19915;-50
2022/12/09 10:38:52;;;;;;;;;;;8.70;61.10;;;1.84;89.70;93924.25;4974936;28;19952;-48
2022/12/09 10:44:30;;;;;;;;;;;8.90;60.70;;;2.06;88.53;93927.56;4991908;28;19952;-52
2022/12/09 10:47:24;;;;;;;;;;;9.20;60.40;;;2.06;87.37;93922.31;4990435;28;19921;-48
2022/12/09 10:49:54;;;;;;;;;;;9.40;60.00;;;2.14;87.80;93922.91;4977357;28;19937;-50
2022/12/09 10:52:42;;;;;;;;;;;9.60;59.70;;;2.19;86.74;93923.72;4990970;28;20020;-48
2022/12/09 10:55:51;;;;;;;;;;;9.70;59.50;;;2.21;87.08;93926.13;4971770;28;19916;-48
2022/12/09 10:58:22;;;;;;;;;;;9.80;59.30;;;2.23;86.89;93916.94;4980371;28;19916;-47
2022/12/09 11:01:09;;;;;;;;;;;9.70;59.20;;;2.08;87.08;93906.31;5006001;28;19963;-53
2022/12/09 11:03:52;;;;;;;;;;;9.50;59.20;;;1.83;87.88;93909.56;5004260;28;19928;-51
2022/12/09 11:06:26;;;;;;;;;;;9.30;59.30;;;1.88;87.30;93906.97;4990072;28;20287;-51
2022/12/09 11:09:02;;;;;;;;;;;9.20;59.50;;;1.96;88.22;93909.13;5005647;28;19917;-49
2022/12/09 11:11:42;;;;;;;;;;;9.10;59.70;;;2.01;88.69;93908.38;4984409;28;19916;-48
2022/12/09 11:14:47;;;;;;;;;;;9.00;59.70;;;2.07;88.34;93904.75;5005790;28;19910;-51
2022/12/09 11:17:18;;;;;;;;;;;9.00;59.80;;;2.04;88.36;93902.63;4989402;28;20367;-49
2022/12/09 11:20:20;;;;;;;;;;;9.00;59.80;;;2.01;88.29;93901.28;5005441;28;20348;-47
2022/12/09 11:23:12;;;;;;;;;;;9.00;59.80;;;1.97;87.93;93896.78;4989630;28;20257;-50
2022/12/09 11:26:01;;;;;;;;;;;8.90;59.80;;;1.95;87.76;93894.41;4989454;28;19952;-47
2022/12/09 11:28:39;;;;;;;;;;;8.80;59.90;;;1.82;87.79;93893.00;4984819;28;19917;-49
2022/12/09 11:31:19;;;;;;;;;;;8.70;59.90;;;1.77;88.62;93892.16;4969898;28;19914;-46
2022/12/09 11:33:57;;;;;;;;;;;8.60;60.00;;;1.85;88.46;93895.13;4975563;28;19909;-49
2022/12/09 11:36:36;;;;;;;;;;;8.60;60.10;;;1.96;88.80;93889.94;4940885;28;19933;-48
2022/12/09 11:39:30;;;;;;;;;;;8.70;60.20;;;2.15;88.37;93885.88;4978769;28;19913;-47
2022/12/09 11:42:25;;;;;;;;;;;8.90;60.20;;;2.25;87.89;93882.53;4979837;28;19924;-48
2022/12/09 11:45:16;;;;;;;;;;;9.00;60.10;;;2.13;87.49;93877.47;4975002;28;20011;-48
2022/12/09 11:47:45;;;;;;;;;;;9.10;60.10;;;2.20;87.04;93885.91;5004831;28;19941;-51
2022/12/09 11:50:31;;;;;;;;;;;9.10;59.80;;;2.28;86.37;93874.13;4989394;28;19913;-48
2022/12/09 11:53:12;;;;;;;;;;;9.20;59.90;;;2.26;86.50;93882.28;4993042;28;20354;-50
2022/12/09 11:56:24;;;;;;;;;;;9.20;59.90;;;2.22;86.59;93883.03;4985297;28;19909;-54